createdAt,value
2018-08-14T00:00:20.185Z,13.70
2018-08-14T00:01:20.241Z,11.10
2018-08-14T00:02:20.217Z,11.50
2018-08-14T00:03:20.125Z,12.20
2018-08-14T00:04:20.130Z,13.30
2018-08-14T00:05:20.101Z,11.90
2018-08-14T00:06:20.134Z,11.50
2018-08-14T00:07:20.162Z,13.60
2018-08-14T00:08:20.068Z,12.30
2018-08-14T00:09:20.058Z,12.30
2018-08-14T00:10:20.065Z,13.20
2018-08-14T00:11:20.070Z,11.40
2018-08-14T00:12:20.023Z,11.90
2018-08-14T00:13:20.045Z,12.70
2018-08-14T00:14:20.026Z,15.70
2018-08-14T00:15:20.021Z,11.90
2018-08-14T00:16:19.992Z,11.80
2018-08-14T00:17:20.028Z,11.50
2018-08-14T00:18:20.058Z,10.70
2018-08-14T00:19:19.952Z,11.70
2018-08-14T00:20:19.969Z,11.60
2018-08-14T00:21:19.943Z,10.70
2018-08-14T00:22:19.925Z,14.10
2018-08-14T00:23:19.955Z,13.30
2018-08-14T00:24:19.901Z,12.40
2018-08-14T00:25:19.886Z,11.10
2018-08-14T00:26:19.907Z,11.30
2018-08-14T00:27:19.909Z,11.70
2018-08-14T00:28:19.859Z,12.00
2018-08-14T00:29:19.837Z,10.50
2018-08-14T00:30:19.902Z,10.70
2018-08-14T00:31:19.819Z,12.40
2018-08-14T00:32:19.826Z,11.80
2018-08-14T00:33:19.827Z,13.30
2018-08-14T00:34:19.839Z,11.40
2018-08-14T00:35:19.833Z,13.60
2018-08-14T00:36:19.763Z,13.90
2018-08-14T00:37:19.783Z,11.30
2018-08-14T00:38:19.774Z,14.20
2018-08-14T00:39:19.740Z,12.30
2018-08-14T00:40:19.768Z,12.20
2018-08-14T00:41:19.709Z,12.70
2018-08-14T00:42:19.774Z,14.40
2018-08-14T00:43:19.701Z,12.70
2018-08-14T00:44:19.706Z,11.30
2018-08-14T00:45:19.707Z,11.00
2018-08-14T00:46:19.666Z,12.10
2018-08-14T00:47:19.661Z,10.80
2018-08-14T00:48:19.644Z,12.00
2018-08-14T00:49:19.734Z,12.90
2018-08-14T00:50:19.612Z,11.20
2018-08-14T00:51:19.721Z,12.10
2018-08-14T00:52:19.617Z,13.20
2018-08-14T00:53:19.578Z,12.70
2018-08-14T00:54:19.642Z,13.40
2018-08-14T00:55:19.564Z,11.90
2018-08-14T00:56:19.626Z,12.00
2018-08-14T00:57:19.573Z,14.10
2018-08-14T00:58:19.539Z,12.50
2018-08-14T00:59:19.571Z,14.20
2018-08-14T01:00:19.612Z,12.80
2018-08-14T01:01:19.604Z,12.60
2018-08-14T01:02:19.489Z,12.50
2018-08-14T01:03:19.461Z,12.70
2018-08-14T01:04:19.542Z,11.80
2018-08-14T01:05:19.441Z,13.40
2018-08-14T01:06:19.471Z,16.60
2018-08-14T01:07:19.435Z,12.90
2018-08-14T01:08:19.432Z,13.70
2018-08-14T01:09:19.439Z,13.30
2018-08-14T01:10:19.492Z,12.90
2018-08-14T01:11:19.386Z,18.60
2018-08-14T01:12:19.443Z,14.90
2018-08-14T01:13:19.468Z,15.80
2018-08-14T01:14:19.371Z,15.40
2018-08-14T01:15:19.368Z,15.30
2018-08-14T01:16:19.327Z,15.00
2018-08-14T01:17:19.426Z,14.10
2018-08-14T01:18:19.385Z,14.90
2018-08-14T01:19:19.312Z,14.00
2018-08-14T01:20:19.363Z,16.10
2018-08-14T01:21:19.324Z,15.50
2018-08-14T01:22:19.263Z,14.00
2018-08-14T01:23:19.252Z,16.80
2018-08-14T01:24:20.335Z,16.40
2018-08-14T01:25:19.250Z,17.50
2018-08-14T01:26:19.276Z,15.60
2018-08-14T01:27:19.195Z,16.70
2018-08-14T01:28:19.201Z,16.10
2018-08-14T01:29:19.181Z,17.20
2018-08-14T01:30:19.213Z,17.50
2018-08-14T01:31:19.198Z,18.50
2018-08-14T01:32:19.171Z,19.00
2018-08-14T01:33:19.139Z,19.20
2018-08-14T01:34:19.219Z,18.50
2018-08-14T01:35:19.128Z,18.80
2018-08-14T01:36:19.132Z,19.60
2018-08-14T01:37:19.135Z,19.70
2018-08-14T01:38:19.174Z,18.40
2018-08-14T01:39:19.152Z,18.80
2018-08-14T01:40:19.092Z,21.20
2018-08-14T01:41:19.142Z,20.20
2018-08-14T01:42:19.061Z,20.70
2018-08-14T01:43:30.611Z,20.50
2018-08-14T01:44:19.542Z,20.90
2018-08-14T01:45:19.355Z,21.30
2018-08-14T01:46:19.036Z,22.20
2018-08-14T01:47:19.107Z,20.50
2018-08-14T01:48:19.055Z,21.80
2018-08-14T01:49:18.966Z,21.70
2018-08-14T01:50:19.040Z,21.10
2018-08-14T01:51:18.949Z,23.20
2018-08-14T01:52:18.935Z,21.90
2018-08-14T01:53:18.943Z,21.10
2018-08-14T01:54:18.920Z,21.40
2018-08-14T01:55:19.004Z,21.20
2018-08-14T01:56:18.927Z,21.90
2018-08-14T01:57:18.955Z,21.60
2018-08-14T01:58:18.957Z,20.60
2018-08-14T01:59:18.860Z,24.50
2018-08-14T02:00:18.916Z,22.10
2018-08-14T02:01:18.876Z,21.70
2018-08-14T02:02:18.816Z,22.10
2018-08-14T02:03:18.855Z,22.30
2018-08-14T02:04:18.813Z,24.40
2018-08-14T02:05:18.821Z,23.20
2018-08-14T02:06:18.776Z,24.70
2018-08-14T02:07:18.884Z,22.10
2018-08-14T02:08:18.790Z,24.20
2018-08-14T02:09:18.741Z,23.40
2018-08-14T02:10:18.765Z,26.00
2018-08-14T02:11:18.886Z,24.30
2018-08-14T02:12:18.709Z,23.90
2018-08-14T02:13:18.737Z,25.60
2018-08-14T02:14:18.703Z,26.50
2018-08-14T02:15:18.676Z,24.60
2018-08-14T02:16:18.710Z,26.80
2018-08-14T02:17:18.656Z,23.80
2018-08-14T02:18:18.640Z,24.20
2018-08-14T02:19:18.639Z,26.40
2018-08-14T02:20:18.635Z,24.40
2018-08-14T02:21:18.619Z,25.50
2018-08-14T02:22:18.666Z,23.10
2018-08-14T02:23:18.606Z,26.00
2018-08-14T02:24:18.608Z,24.80
2018-08-14T02:25:18.623Z,24.30
2018-08-14T02:26:18.615Z,25.20
2018-08-14T02:27:18.718Z,28.90
2018-08-14T02:28:20.353Z,24.90
2018-08-14T02:29:18.531Z,26.70
2018-08-14T02:30:18.519Z,27.90
2018-08-14T02:31:18.639Z,30.20
2018-08-14T02:32:18.573Z,27.90
2018-08-14T02:33:18.553Z,28.20
2018-08-14T02:34:18.584Z,30.70
2018-08-14T02:35:18.474Z,31.10
2018-08-14T02:36:18.578Z,29.10
2018-08-14T02:37:18.604Z,28.80
2018-08-14T02:38:18.627Z,29.90
2018-08-14T02:39:18.507Z,31.20
2018-08-14T02:40:18.423Z,32.10
2018-08-14T02:41:18.433Z,32.90
2018-08-14T02:42:18.386Z,36.30
2018-08-14T02:43:18.471Z,40.20
2018-08-14T02:44:18.362Z,39.00
2018-08-14T02:45:18.346Z,37.30
2018-08-14T02:46:18.349Z,35.70
2018-08-14T02:47:18.324Z,40.10
2018-08-14T02:48:18.316Z,36.60
2018-08-14T02:49:18.375Z,41.40
2018-08-14T02:50:18.317Z,42.30
2018-08-14T02:51:18.285Z,40.60
2018-08-14T02:52:18.272Z,38.80
2018-08-14T02:53:18.335Z,41.40
2018-08-14T02:54:18.245Z,41.30
2018-08-14T02:55:18.256Z,41.90
2018-08-14T02:56:18.263Z,42.50
2018-08-14T02:57:18.218Z,43.50
2018-08-14T02:58:18.256Z,40.80
2018-08-14T02:59:18.213Z,46.20
2018-08-14T03:00:18.188Z,39.80
2018-08-14T03:01:18.167Z,42.10
2018-08-14T03:02:18.155Z,44.70
2018-08-14T03:03:18.223Z,41.50
2018-08-14T03:04:18.135Z,41.60
2018-08-14T03:05:18.123Z,46.40
2018-08-14T03:06:18.142Z,46.20
2018-08-14T03:07:18.108Z,44.30
2018-08-14T03:08:18.086Z,45.60
2018-08-14T03:09:18.105Z,43.10
2018-08-14T03:10:18.062Z,45.30
2018-08-14T03:11:18.094Z,44.90
2018-08-14T03:12:18.040Z,45.20
2018-08-14T03:13:18.033Z,48.70
2018-08-14T03:14:18.032Z,46.10
2018-08-14T03:15:18.043Z,47.20
2018-08-14T03:16:18.022Z,43.20
2018-08-14T03:17:18.042Z,44.20
2018-08-14T03:18:17.993Z,47.80
2018-08-14T03:19:17.980Z,42.90
2018-08-14T03:20:17.958Z,49.10
2018-08-14T03:21:17.967Z,50.60
2018-08-14T03:22:17.934Z,50.80
2018-08-14T03:23:17.923Z,46.20
2018-08-14T03:24:17.940Z,47.80
2018-08-14T03:25:17.943Z,50.90
2018-08-14T03:26:17.902Z,47.70
2018-08-14T03:27:17.890Z,54.30
2018-08-14T03:28:17.870Z,49.60
2018-08-14T03:29:17.861Z,49.30
2018-08-14T03:30:17.911Z,54.00
2018-08-14T03:31:17.843Z,55.00
2018-08-14T03:32:17.861Z,57.20
2018-08-14T03:33:17.815Z,56.10
2018-08-14T03:34:17.809Z,56.70
2018-08-14T03:35:17.841Z,54.00
2018-08-14T03:36:17.781Z,55.30
2018-08-14T03:37:17.795Z,56.50
2018-08-14T03:38:17.795Z,56.60
2018-08-14T03:39:17.753Z,57.10
2018-08-14T03:40:17.742Z,57.90
2018-08-14T03:41:17.729Z,64.50
2018-08-14T03:42:17.787Z,67.30
2018-08-14T03:43:17.709Z,71.80
2018-08-14T03:44:17.739Z,65.40
2018-08-14T03:45:17.689Z,67.60
2018-08-14T03:46:17.701Z,70.10
2018-08-14T03:47:17.664Z,68.10
2018-08-14T03:48:17.713Z,67.30
2018-08-14T03:49:17.674Z,68.40
2018-08-14T03:50:17.632Z,71.10
2018-08-14T03:51:17.647Z,74.20
2018-08-14T03:52:17.640Z,75.00
2018-08-14T03:53:17.665Z,72.30
2018-08-14T03:54:17.592Z,73.90
2018-08-14T03:55:17.577Z,75.30
2018-08-14T03:56:17.588Z,79.10
2018-08-14T03:57:17.623Z,74.90
2018-08-14T03:58:17.549Z,81.20
2018-08-14T03:59:17.532Z,80.70
2018-08-14T04:00:17.552Z,80.90
2018-08-14T04:01:17.597Z,78.80
2018-08-14T04:02:17.514Z,83.00
2018-08-14T04:03:17.492Z,83.90
2018-08-14T04:04:17.510Z,85.20
2018-08-14T04:05:17.473Z,79.10
2018-08-14T04:06:17.470Z,86.80
2018-08-14T04:07:17.488Z,87.50
2018-08-14T04:08:17.433Z,80.10
2018-08-14T04:09:17.423Z,85.00
2018-08-14T04:10:17.539Z,83.80
2018-08-14T04:11:17.421Z,85.60
2018-08-14T04:12:17.404Z,81.70
2018-08-14T04:13:17.472Z,89.20
2018-08-14T04:14:17.408Z,87.20
2018-08-14T04:15:17.397Z,91.40
2018-08-14T04:16:17.397Z,88.00
2018-08-14T04:17:17.411Z,89.90
2018-08-14T04:18:17.408Z,83.80
2018-08-14T04:19:17.308Z,82.20
2018-08-14T04:20:17.297Z,84.70
2018-08-14T04:21:17.337Z,87.40
2018-08-14T04:22:17.284Z,89.30
2018-08-14T04:23:17.317Z,87.00
2018-08-14T04:24:17.317Z,89.30
2018-08-14T04:25:17.246Z,82.70
2018-08-14T04:26:17.245Z,84.90
2018-08-14T04:27:17.230Z,83.40
2018-08-14T04:28:17.222Z,89.60
2018-08-14T04:29:17.281Z,84.10
2018-08-14T04:30:17.211Z,84.10
2018-08-14T04:31:17.181Z,84.60
2018-08-14T04:32:17.216Z,89.60
2018-08-14T04:33:17.165Z,86.20
2018-08-14T04:34:17.202Z,86.60
2018-08-14T04:35:17.144Z,84.70
2018-08-14T04:36:17.225Z,85.60
2018-08-14T04:37:17.153Z,79.60
2018-08-14T04:38:17.104Z,80.30
2018-08-14T04:40:39.434Z,72.70
2018-08-14T04:41:39.017Z,82.40
2018-08-14T04:42:38.967Z,78.70
2018-08-14T04:43:38.923Z,82.60
2018-08-14T04:44:38.928Z,81.60
2018-08-14T04:45:39.416Z,79.90
2018-08-14T04:46:38.879Z,81.80
2018-08-14T04:47:38.945Z,79.30
2018-08-14T04:48:38.834Z,78.40
2018-08-14T04:49:38.827Z,81.10
2018-08-14T04:50:38.820Z,83.90
2018-08-14T04:51:38.814Z,81.40
2018-08-14T04:52:38.807Z,78.60
2018-08-14T04:53:38.787Z,76.90
2018-08-14T04:54:38.768Z,81.30
2018-08-14T04:55:38.839Z,76.50
2018-08-14T04:56:38.769Z,76.50
2018-08-14T04:57:38.767Z,77.40
2018-08-14T04:58:38.728Z,72.80
2018-08-14T04:59:38.779Z,79.10
2018-08-14T05:00:38.697Z,75.20
2018-08-14T05:01:38.694Z,75.90
2018-08-14T05:02:38.710Z,74.50
2018-08-14T05:03:38.689Z,79.50
2018-08-14T05:04:39.677Z,74.10
2018-08-14T05:05:38.729Z,73.30
2018-08-14T05:06:38.667Z,76.20
2018-08-14T05:08:31.498Z,63.60
2018-08-14T05:09:31.138Z,71.40
2018-08-14T05:10:31.118Z,71.80
2018-08-14T05:13:23.501Z,66.60
2018-08-14T05:14:23.246Z,74.10
2018-08-14T05:15:23.646Z,76.10
2018-08-14T05:16:23.203Z,79.00
2018-08-14T05:17:23.222Z,76.00
2018-08-14T05:18:23.177Z,74.70
2018-08-14T05:19:23.183Z,76.30
2018-08-14T05:20:23.151Z,74.10
2018-08-14T05:21:23.128Z,76.50
2018-08-14T05:22:23.123Z,72.70
2018-08-14T05:23:24.025Z,64.50
2018-08-14T05:24:31.762Z,71.00
2018-08-14T05:25:23.132Z,69.10
2018-08-14T05:26:23.077Z,64.90
2018-08-14T05:27:23.169Z,63.00
2018-08-14T05:28:23.052Z,68.30
2018-08-14T05:29:23.085Z,58.60
2018-08-14T05:30:26.328Z,68.50
2018-08-14T05:37:15.850Z,57.70
2018-08-14T05:39:27.455Z,50.50
2018-08-14T05:40:26.208Z,54.60
2018-08-14T05:41:26.227Z,64.90
2018-08-14T05:42:26.332Z,62.70
2018-08-14T05:43:26.274Z,67.80
2018-08-14T05:44:26.058Z,61.60
2018-08-14T05:45:26.162Z,60.90
2018-08-14T05:46:26.065Z,66.60
2018-08-14T05:47:26.033Z,68.40
2018-08-14T05:48:26.031Z,64.50
2018-08-14T05:49:26.083Z,63.90
2018-08-14T05:50:26.023Z,60.30
2018-08-14T05:51:25.985Z,65.20
2018-08-14T05:52:26.095Z,62.50
2018-08-14T05:53:25.963Z,67.60
2018-08-14T05:54:25.973Z,66.40
2018-08-14T05:55:25.944Z,65.60
2018-08-14T05:56:25.927Z,62.80
2018-08-14T05:57:25.936Z,65.50
2018-08-14T05:58:26.007Z,60.30
2018-08-14T05:59:25.904Z,61.70
2018-08-14T06:00:25.884Z,64.30
2018-08-14T06:01:25.924Z,61.70
2018-08-14T06:02:25.905Z,62.60
2018-08-14T06:03:25.907Z,61.50
2018-08-14T06:04:25.881Z,60.00
2018-08-14T06:05:26.724Z,62.30
2018-08-14T06:06:25.826Z,62.90
2018-08-14T06:07:25.810Z,62.40
2018-08-14T06:08:25.796Z,63.00
2018-08-14T06:09:25.880Z,68.50
2018-08-14T06:10:25.920Z,64.40
2018-08-14T06:11:25.763Z,68.00
2018-08-14T06:12:25.812Z,66.60
2018-08-14T06:13:25.781Z,66.80
2018-08-14T06:14:25.739Z,65.20
2018-08-14T06:15:25.754Z,66.40
2018-08-14T06:16:25.709Z,65.10
2018-08-14T06:17:25.742Z,67.00
2018-08-14T06:18:25.797Z,68.20
2018-08-14T06:19:25.757Z,66.60
2018-08-14T06:20:25.705Z,67.20
2018-08-14T06:21:25.847Z,67.70
2018-08-14T06:22:25.679Z,64.50
2018-08-14T06:23:25.672Z,70.50
2018-08-14T06:24:25.805Z,68.80
2018-08-14T06:25:25.655Z,65.10
2018-08-14T06:26:25.605Z,69.10
2018-08-14T06:27:25.594Z,64.00
2018-08-14T06:28:25.577Z,65.40
2018-08-14T06:29:25.610Z,62.00
2018-08-14T06:30:25.562Z,66.40
2018-08-14T06:31:25.583Z,69.00
2018-08-14T06:32:25.533Z,71.70
2018-08-14T06:33:25.581Z,65.00
2018-08-14T06:34:25.551Z,61.80
2018-08-14T06:35:25.552Z,64.30
2018-08-14T06:36:25.500Z,67.80
2018-08-14T06:37:25.477Z,70.80
2018-08-14T06:38:25.472Z,69.00
2018-08-14T06:39:27.229Z,70.20
2018-08-14T06:40:25.456Z,74.40
2018-08-14T06:41:25.428Z,68.70
2018-08-14T06:42:25.432Z,67.00
2018-08-14T06:43:25.434Z,71.00
2018-08-14T06:44:25.401Z,69.10
2018-08-14T06:45:25.416Z,69.40
2018-08-14T06:46:25.375Z,68.30
2018-08-14T06:47:25.409Z,76.50
2018-08-14T06:48:25.466Z,74.50
2018-08-14T06:49:25.370Z,74.00
2018-08-14T06:50:25.337Z,69.40
2018-08-14T06:51:25.360Z,78.70
2018-08-14T06:52:25.311Z,77.90
2018-08-14T06:53:25.494Z,70.80
2018-08-14T06:54:25.334Z,76.80
2018-08-14T07:04:59.004Z,72.20
2018-08-14T07:05:58.727Z,82.40
2018-08-14T07:06:58.908Z,85.10
2018-08-14T07:09:15.754Z,76.30
2018-08-14T07:15:34.957Z,83.20
2018-08-14T07:16:34.622Z,96.30
2018-08-14T07:17:34.381Z,74.90
2018-08-14T07:18:34.354Z,91.00
2018-08-14T07:19:34.478Z,83.40
2018-08-14T07:20:34.380Z,82.60
2018-08-14T07:21:34.435Z,80.30
2018-08-14T07:22:35.709Z,78.90
2018-08-14T07:23:34.363Z,80.90
2018-08-14T07:24:34.295Z,88.20
2018-08-14T07:25:42.961Z,78.10
2018-08-14T07:26:34.643Z,86.80
2018-08-14T07:27:34.478Z,82.90
2018-08-14T07:28:34.315Z,78.20
2018-08-14T07:29:38.937Z,79.60
2018-08-14T07:31:45.580Z,68.50
2018-08-14T07:32:54.372Z,75.90
2018-08-14T07:33:44.838Z,74.70
2018-08-14T07:40:28.260Z,77.20
2018-08-14T07:42:24.499Z,67.80
2018-08-14T07:52:51.773Z,58.30
2018-08-14T07:56:04.370Z,53.10
2018-08-14T07:57:04.140Z,58.10
2018-08-14T07:58:04.091Z,55.60
2018-08-14T07:59:04.103Z,50.80
2018-08-14T08:00:03.984Z,55.40
2018-08-14T08:01:03.958Z,53.90
2018-08-14T08:02:04.009Z,61.40
2018-08-14T08:03:03.950Z,57.00
2018-08-14T08:04:03.925Z,53.30
2018-08-14T08:05:03.984Z,49.60
2018-08-14T08:06:03.907Z,49.90
2018-08-14T08:07:03.897Z,33.80
2018-08-14T08:08:03.898Z,41.40
2018-08-14T08:09:03.869Z,36.00
2018-08-14T08:10:03.898Z,36.00
2018-08-14T08:16:34.117Z,30.40
2018-08-14T08:17:33.405Z,32.70
2018-08-14T08:18:33.400Z,33.30
2018-08-14T08:19:33.235Z,34.00
2018-08-14T08:20:33.230Z,30.30
2018-08-14T08:22:50.191Z,22.50
2018-08-14T08:23:49.953Z,26.20
2018-08-14T08:24:49.808Z,26.00
2018-08-14T08:25:49.864Z,23.90
2018-08-14T08:26:49.905Z,28.80
2018-08-14T08:27:49.893Z,25.80
2018-08-14T08:28:50.165Z,28.80
2018-08-14T08:29:49.775Z,25.00
2018-08-14T08:30:49.748Z,27.30
2018-08-14T08:31:49.913Z,22.70
2018-08-14T08:32:49.727Z,27.70
2018-08-14T08:33:49.732Z,25.50
2018-08-14T08:34:49.780Z,23.10
2018-08-14T08:35:49.687Z,28.70
2018-08-14T08:36:49.679Z,25.60
2018-08-14T08:37:49.734Z,20.80
2018-08-14T08:40:54.813Z,17.00
2018-08-14T08:43:12.094Z,21.00
2018-08-14T08:44:11.972Z,19.40
2018-08-14T08:45:11.970Z,24.60
2018-08-14T08:46:11.988Z,21.50
2018-08-14T08:47:11.944Z,20.30
2018-08-14T08:48:11.943Z,20.40
2018-08-14T08:49:11.927Z,20.40
2018-08-14T08:50:11.903Z,21.40
2018-08-14T08:52:53.443Z,18.50
2018-08-14T08:55:35.629Z,18.50
2018-08-14T08:58:09.083Z,7.80
2018-08-14T08:59:09.180Z,17.60
2018-08-14T09:04:04.895Z,14.50
2018-08-14T09:05:04.666Z,14.70
2018-08-14T09:06:04.593Z,15.40
2018-08-14T09:07:04.488Z,13.50
2018-08-14T09:08:04.470Z,13.90
2018-08-14T09:09:04.457Z,10.90
2018-08-14T09:10:04.511Z,12.70
2018-08-14T09:11:04.429Z,11.70
2018-08-14T09:12:04.506Z,12.90
2018-08-14T09:13:06.218Z,11.70
2018-08-14T09:14:21.166Z,13.70
2018-08-14T09:15:04.412Z,12.10
2018-08-14T09:16:04.379Z,11.80
2018-08-14T09:17:09.197Z,11.50
2018-08-14T09:18:19.905Z,12.30
2018-08-14T09:19:04.385Z,13.00
2018-08-14T09:20:04.503Z,13.80
2018-08-14T09:21:04.326Z,10.20
2018-08-14T09:22:04.441Z,9.70
2018-08-14T09:23:04.500Z,10.10
2018-08-14T09:24:04.353Z,10.10
2018-08-14T09:25:04.297Z,11.10
2018-08-14T09:26:04.274Z,6.90
2018-08-14T09:27:04.292Z,8.00
2018-08-14T09:28:04.263Z,9.00
2018-08-14T09:29:04.239Z,6.90
2018-08-14T09:30:04.552Z,10.00
2018-08-14T09:31:10.224Z,8.00
2018-08-14T09:32:04.217Z,8.70
2018-08-14T09:33:04.195Z,8.40
2018-08-14T09:34:04.224Z,7.70
2018-08-14T09:35:04.563Z,7.10
2018-08-14T09:36:04.168Z,6.40
2018-08-14T09:37:04.205Z,8.50
2018-08-14T09:38:04.150Z,7.50
2018-08-14T09:39:04.636Z,6.50
2018-08-14T09:40:04.123Z,7.30
2018-08-14T09:41:04.150Z,7.70
2018-08-14T09:42:04.250Z,7.60
2018-08-14T09:43:04.097Z,6.00
2018-08-14T09:44:04.628Z,7.50
2018-08-14T09:45:04.179Z,9.10
2018-08-14T09:46:09.295Z,7.10
2018-08-14T09:47:04.064Z,7.70
2018-08-14T09:48:04.237Z,7.50
2018-08-14T09:51:37.831Z,5.90
2018-08-14T09:52:37.491Z,5.40
2018-08-14T09:53:37.524Z,7.60
2018-08-14T09:54:37.473Z,7.40
2018-08-14T09:55:37.461Z,6.80
2018-08-14T09:56:37.464Z,6.00
2018-08-14T09:57:37.452Z,5.10
2018-08-14T09:58:37.419Z,6.70
2018-08-14T09:59:37.535Z,6.00
2018-08-14T10:00:37.402Z,5.70
2018-08-14T10:01:37.424Z,4.00
2018-08-14T10:02:37.384Z,4.50
2018-08-14T10:03:37.641Z,6.40
2018-08-14T10:04:37.410Z,6.90
2018-08-14T10:05:37.353Z,5.00
2018-08-14T10:06:37.355Z,6.50
2018-08-14T10:07:37.351Z,5.20
2018-08-14T10:08:37.331Z,5.20
2018-08-14T10:09:37.321Z,5.10
2018-08-14T10:10:37.363Z,5.20
2018-08-14T10:11:37.281Z,7.80
2018-08-14T10:12:37.269Z,5.30
2018-08-14T10:13:37.261Z,5.90
2018-08-14T10:14:37.278Z,5.80
2018-08-14T10:15:37.278Z,5.00
2018-08-14T10:16:38.080Z,6.90
2018-08-14T10:17:37.250Z,5.40
2018-08-14T10:18:37.226Z,4.70
2018-08-14T10:19:37.196Z,4.70
2018-08-14T10:20:37.184Z,5.80
2018-08-14T10:21:37.173Z,6.00
2018-08-14T10:22:37.168Z,6.10
2018-08-14T10:23:37.210Z,9.80
2018-08-14T10:24:37.141Z,4.50
2018-08-14T10:25:37.132Z,5.00
2018-08-14T10:26:37.178Z,6.80
2018-08-14T10:27:37.117Z,4.50
2018-08-14T10:28:38.138Z,6.60
2018-08-14T10:29:37.104Z,6.50
2018-08-14T10:30:37.110Z,6.30
2018-08-14T10:31:37.082Z,5.10
2018-08-14T10:32:37.067Z,5.50
2018-08-14T10:33:37.047Z,7.30
2018-08-14T10:34:37.035Z,5.70
2018-08-14T10:35:37.026Z,5.80
2018-08-14T10:36:37.037Z,4.60
2018-08-14T10:37:37.008Z,7.20
2018-08-14T10:38:37.025Z,4.30
2018-08-14T10:39:37.038Z,5.50
2018-08-14T10:40:36.975Z,3.60
2018-08-14T10:41:36.976Z,6.90
2018-08-14T10:42:36.953Z,7.30
2018-08-14T10:43:36.947Z,8.70
2018-08-14T10:44:36.932Z,7.20
2018-08-14T10:45:36.922Z,6.00
2018-08-14T10:46:36.930Z,14.70
2018-08-14T10:47:36.905Z,18.80
2018-08-14T10:48:36.907Z,11.00
2018-08-14T10:49:36.889Z,9.00
2018-08-14T10:50:36.941Z,9.50
2018-08-14T10:51:36.857Z,12.70
2018-08-14T10:52:36.849Z,6.40
2018-08-14T10:53:36.872Z,5.60
2018-08-14T10:54:36.833Z,5.40
2018-08-14T10:55:36.835Z,6.70
2018-08-14T10:56:36.806Z,6.60
2018-08-14T10:57:36.826Z,4.60
2018-08-14T10:58:36.802Z,7.10
2018-08-14T10:59:36.787Z,4.70
2018-08-14T11:00:36.764Z,5.90
2018-08-14T11:01:36.781Z,5.00
2018-08-14T11:02:36.771Z,4.10
2018-08-14T11:03:36.734Z,4.60
2018-08-14T11:04:36.830Z,6.10
2018-08-14T11:05:36.710Z,6.40
2018-08-14T11:06:36.700Z,2.80
2018-08-14T11:07:36.703Z,4.60
2018-08-14T11:08:36.685Z,5.60
2018-08-14T11:09:36.676Z,4.90
2018-08-14T11:10:36.710Z,4.40
2018-08-14T11:11:36.645Z,3.90
2018-08-14T11:12:36.639Z,5.00
2018-08-14T11:13:36.677Z,4.60
2018-08-14T11:14:36.613Z,6.00
2018-08-14T11:15:36.613Z,6.30
2018-08-14T11:16:36.629Z,4.80
2018-08-14T11:17:36.585Z,6.00
2018-08-14T11:18:36.582Z,4.60
2018-08-14T11:19:36.576Z,6.90
2018-08-14T11:20:36.622Z,6.60
2018-08-14T11:21:36.551Z,4.60
2018-08-14T11:22:36.563Z,6.20
2018-08-14T11:23:36.526Z,6.20
2018-08-14T11:24:36.535Z,4.70
2018-08-14T11:25:36.533Z,3.70
2018-08-14T11:26:36.594Z,6.20
2018-08-14T11:27:36.559Z,4.20
2018-08-14T11:28:36.507Z,4.30
2018-08-14T11:29:36.519Z,5.50
2018-08-14T11:30:36.457Z,5.40
2018-08-14T11:31:36.464Z,4.50
2018-08-14T11:32:36.580Z,4.60
2018-08-14T11:33:36.427Z,5.30
2018-08-14T11:34:36.427Z,6.30
2018-08-14T11:35:36.418Z,4.10
2018-08-14T11:36:36.390Z,4.50
2018-08-14T11:37:36.384Z,5.20
2018-08-14T11:38:36.373Z,5.00
2018-08-14T11:39:36.370Z,6.30
2018-08-14T11:40:37.376Z,3.90
2018-08-14T11:41:36.442Z,4.50
2018-08-14T11:42:36.339Z,5.40
2018-08-14T11:43:36.316Z,4.80
2018-08-14T11:44:36.409Z,6.50
2018-08-14T11:45:37.327Z,7.70
2018-08-14T11:46:37.089Z,2.30
2018-08-14T11:47:36.282Z,6.00
2018-08-14T11:48:36.260Z,4.60
2018-08-14T11:49:36.247Z,6.00
2018-08-14T11:50:36.307Z,6.10
2018-08-14T11:51:36.271Z,7.30
2018-08-14T11:52:36.218Z,6.00
2018-08-14T11:53:36.204Z,6.90
2018-08-14T11:54:36.196Z,3.70
2018-08-14T11:55:36.182Z,5.30
2018-08-14T11:56:36.170Z,5.20
2018-08-14T11:57:36.227Z,5.00
2018-08-14T11:58:36.359Z,4.80
2018-08-14T11:59:36.137Z,3.20
2018-08-14T12:00:36.128Z,6.30
2018-08-14T12:01:36.139Z,5.30
2018-08-14T12:02:36.112Z,3.70
2018-08-14T12:03:36.104Z,6.60
2018-08-14T12:04:36.113Z,6.30
2018-08-14T12:05:36.083Z,4.80
2018-08-14T12:06:36.083Z,5.10
2018-08-14T12:07:36.054Z,3.60
2018-08-14T12:08:36.048Z,4.50
2018-08-14T12:09:36.064Z,8.30
2018-08-14T12:10:36.046Z,5.20
2018-08-14T12:11:36.020Z,6.00
2018-08-14T12:12:36.002Z,7.00
2018-08-14T12:13:35.989Z,4.50
2018-08-14T12:14:35.978Z,6.00
2018-08-14T12:15:36.009Z,5.80
2018-08-14T12:16:35.958Z,6.10
2018-08-14T12:17:35.954Z,6.00
2018-08-14T12:18:36.056Z,6.70
2018-08-14T12:19:35.931Z,7.00
2018-08-14T12:20:35.960Z,5.90
2018-08-14T12:21:35.961Z,7.50
2018-08-14T12:22:35.955Z,6.60
2018-08-14T12:23:35.886Z,6.90
2018-08-14T12:24:35.879Z,10.60
2018-08-14T12:25:36.091Z,7.00
2018-08-14T12:26:35.855Z,4.60
2018-08-14T12:27:35.909Z,6.90
2018-08-14T12:28:35.829Z,6.70
2018-08-14T12:29:35.820Z,4.90
2018-08-14T12:30:35.808Z,8.90
2018-08-14T12:31:35.872Z,5.70
2018-08-14T12:32:35.976Z,6.20
2018-08-14T12:33:35.790Z,5.70
2018-08-14T12:34:35.857Z,6.40
2018-08-14T12:35:35.836Z,4.80
2018-08-14T12:36:35.902Z,6.00
2018-08-14T12:37:35.730Z,6.00
2018-08-14T12:38:35.743Z,7.30
2018-08-14T12:39:35.724Z,5.30
2018-08-14T12:40:35.750Z,8.30
2018-08-14T12:41:35.722Z,5.00
2018-08-14T12:42:35.681Z,7.50
2018-08-14T12:43:35.669Z,4.70
2018-08-14T12:44:35.668Z,5.30
2018-08-14T12:45:35.821Z,4.90
2018-08-14T12:46:35.669Z,6.50
2018-08-14T12:47:35.626Z,5.60
2018-08-14T12:48:35.619Z,4.50
2018-08-14T12:49:35.616Z,5.10
2018-08-14T12:50:35.603Z,5.50
2018-08-14T12:51:35.632Z,10.00
2018-08-14T12:52:35.594Z,8.00
2018-08-14T12:53:35.783Z,5.80
2018-08-14T12:54:35.918Z,5.00
2018-08-14T12:55:35.584Z,7.30
2018-08-14T12:56:35.546Z,7.10
2018-08-14T12:57:35.527Z,6.10
2018-08-14T12:58:35.532Z,5.50
2018-08-14T12:59:35.527Z,5.40
2018-08-14T13:00:35.599Z,5.70
2018-08-14T13:01:35.554Z,7.10
2018-08-14T13:02:35.619Z,4.90
2018-08-14T13:03:35.480Z,5.80
2018-08-14T13:04:35.447Z,6.80
2018-08-14T13:05:35.463Z,6.60
2018-08-14T13:06:35.431Z,6.20
2018-08-14T13:07:35.422Z,7.60
2018-08-14T13:08:35.408Z,8.60
2018-08-14T13:09:35.398Z,4.50
2018-08-14T13:10:35.390Z,6.10
2018-08-14T13:11:35.416Z,6.50
2018-08-14T13:12:35.372Z,7.00
2018-08-14T13:13:35.381Z,6.00
2018-08-14T13:14:35.351Z,6.70
2018-08-14T13:15:35.331Z,5.00
2018-08-14T13:16:35.337Z,7.10
2018-08-14T13:17:35.330Z,6.70
2018-08-14T13:18:35.302Z,6.80
2018-08-14T13:19:35.299Z,8.60
2018-08-14T13:20:35.394Z,8.20
2018-08-14T13:21:35.278Z,5.80
2018-08-14T13:22:36.113Z,6.10
2018-08-14T13:23:35.270Z,4.80
2018-08-14T13:24:35.367Z,6.90
2018-08-14T13:25:35.232Z,5.30
2018-08-14T13:26:35.217Z,6.40
2018-08-14T13:27:36.226Z,6.20
2018-08-14T13:28:36.539Z,4.80
2018-08-14T13:29:35.186Z,6.30
2018-08-14T13:30:36.077Z,6.60
2018-08-14T13:31:35.175Z,5.60
2018-08-14T13:32:35.191Z,8.50
2018-08-14T13:33:35.143Z,7.50
2018-08-14T13:34:35.194Z,3.80
2018-08-14T13:35:35.127Z,6.50
2018-08-14T13:36:35.119Z,6.40
2018-08-14T13:37:35.144Z,7.20
2018-08-14T13:38:35.099Z,6.10
2018-08-14T13:39:35.112Z,6.10
2018-08-14T13:40:35.081Z,5.40
2018-08-14T13:41:35.061Z,5.30
2018-08-14T13:42:35.070Z,6.30
2018-08-14T13:43:35.050Z,6.20
2018-08-14T13:44:35.045Z,6.50
2018-08-14T13:45:35.068Z,7.10
2018-08-14T13:46:35.080Z,4.30
2018-08-14T13:47:35.103Z,6.70
2018-08-14T13:48:34.995Z,6.20
2018-08-14T13:49:34.980Z,5.50
2018-08-14T13:50:34.967Z,5.30
2018-08-14T13:51:35.277Z,6.60
2018-08-14T13:52:35.061Z,5.50
2018-08-14T13:53:34.963Z,9.40
2018-08-14T13:54:34.925Z,5.10
2018-08-14T13:55:34.910Z,6.00
2018-08-14T13:56:34.974Z,7.20
2018-08-14T13:57:34.899Z,9.70
2018-08-14T13:58:34.939Z,4.70
2018-08-14T13:59:34.896Z,5.40
2018-08-14T14:00:34.867Z,7.70
2018-08-14T14:01:34.865Z,4.80
2018-08-14T14:02:34.839Z,7.30
2018-08-14T14:03:34.841Z,7.30
2018-08-14T14:04:34.827Z,6.50
2018-08-14T14:05:34.806Z,5.90
2018-08-14T14:06:34.829Z,5.20
2018-08-14T14:07:34.788Z,5.70
2018-08-14T14:08:34.777Z,5.00
2018-08-14T14:09:34.801Z,5.70